createdAt,value
2018-12-06T00:00:59.971Z,2.90
2018-12-06T00:04:09.083Z,2.90
2018-12-06T00:10:47.130Z,2.90
2018-12-06T00:14:12.573Z,2.90
2018-12-06T00:17:21.753Z,2.90
2018-12-06T00:20:12.067Z,3.00
2018-12-06T00:23:02.317Z,2.90
2018-12-06T00:26:11.449Z,2.90
2018-12-06T00:29:20.617Z,2.90
2018-12-06T00:32:29.741Z,2.90
2018-12-06T00:35:39.243Z,3.00
2018-12-06T00:38:48.420Z,3.00
2018-12-06T00:46:12.523Z,2.90
2018-12-06T00:53:41.931Z,2.90
2018-12-06T00:56:49.521Z,2.90
2018-12-06T00:59:39.750Z,2.90
2018-12-06T01:02:48.914Z,2.90
2018-12-06T01:05:56.499Z,2.90
2018-12-06T01:12:36.090Z,3.00
2018-12-06T01:15:26.438Z,3.00
2018-12-06T01:22:04.257Z,3.10
2018-12-06T01:25:13.404Z,3.10
2018-12-06T01:28:22.526Z,3.10
2018-12-06T01:31:31.664Z,3.20
2018-12-06T01:34:40.805Z,3.30
2018-12-06T01:37:49.936Z,3.30
2018-12-06T01:43:53.651Z,3.30
2018-12-06T02:04:11.934Z,3.30
2018-12-06T02:07:02.177Z,3.30
2018-12-06T02:22:09.671Z,3.20
2018-12-06T02:25:13.841Z,3.20
2018-12-06T02:28:23.028Z,3.20
2018-12-06T02:31:13.636Z,3.10
2018-12-06T02:37:18.833Z,3.10
2018-12-06T02:40:28.039Z,3.10
2018-12-06T02:43:18.325Z,3.10
2018-12-06T02:49:10.669Z,3.10
2018-12-06T02:55:17.183Z,3.10
2018-12-06T02:58:26.299Z,3.00
2018-12-06T03:01:35.717Z,3.00
2018-12-06T03:04:25.995Z,3.00
2018-12-06T03:07:35.175Z,3.00
2018-12-06T03:16:56.025Z,3.00
2018-12-06T03:19:55.316Z,3.10
2018-12-06T03:23:02.980Z,3.10
2018-12-06T03:26:29.303Z,3.10
2018-12-06T03:29:38.617Z,3.20
2018-12-06T03:32:29.304Z,3.30
2018-12-06T03:35:19.804Z,3.40
2018-12-06T03:38:29.283Z,3.40
2018-12-06T03:41:20.013Z,3.40
2018-12-06T03:44:29.172Z,3.40
2018-12-06T03:47:19.461Z,3.40
2018-12-06T03:53:39.768Z,3.30
2018-12-06T03:56:48.905Z,3.30
2018-12-06T03:59:58.145Z,3.30
2018-12-06T04:03:07.256Z,3.30
2018-12-06T04:06:16.361Z,3.30
2018-12-06T04:09:29.090Z,3.30
2018-12-06T04:12:38.272Z,3.30
2018-12-06T04:15:28.708Z,3.40
2018-12-06T04:18:37.886Z,3.30
2018-12-06T04:21:46.781Z,3.40
2018-12-06T04:24:55.947Z,3.30
2018-12-06T04:28:05.092Z,3.40
2018-12-06T04:38:26.185Z,3.40
2018-12-06T04:41:35.283Z,3.40
2018-12-06T04:44:44.409Z,3.40
2018-12-06T04:47:54.248Z,3.40
2018-12-06T04:51:03.404Z,3.50
2018-12-06T04:54:12.837Z,3.50
2018-12-06T04:57:21.972Z,3.70
2018-12-06T05:00:12.282Z,3.70
2018-12-06T05:03:21.553Z,3.70
2018-12-06T05:06:30.739Z,3.70
2018-12-06T05:09:39.615Z,3.70
2018-12-06T05:12:29.956Z,3.60
2018-12-06T05:15:39.195Z,3.70
2018-12-06T05:18:48.812Z,3.80
2018-12-06T05:21:39.130Z,3.70
2018-12-06T05:24:29.390Z,3.60
2018-12-06T05:27:38.566Z,3.60
2018-12-06T05:30:27.213Z,3.60
2018-12-06T05:36:49.584Z,3.60
2018-12-06T05:39:58.726Z,3.70
2018-12-06T05:42:49.579Z,3.80
2018-12-06T05:46:15.837Z,3.80
2018-12-06T05:49:24.969Z,3.70
2018-12-06T05:52:34.152Z,3.70
2018-12-06T05:55:43.366Z,3.70
2018-12-06T05:58:30.283Z,3.70
2018-12-06T06:01:40.012Z,3.70
2018-12-06T06:04:49.152Z,3.70
2018-12-06T06:15:15.037Z,3.90
2018-12-06T06:18:24.239Z,4.00
2018-12-06T06:21:33.382Z,4.10
2018-12-06T06:25:03.202Z,4.10
2018-12-06T06:28:12.623Z,4.00
2018-12-06T06:31:21.840Z,4.00
2018-12-06T06:34:30.754Z,4.00
2018-12-06T06:37:21.150Z,4.00
2018-12-06T06:40:30.519Z,4.00
2018-12-06T06:43:39.778Z,4.00
2018-12-06T06:53:33.658Z,4.10
2018-12-06T06:56:23.992Z,4.10
2018-12-06T06:59:33.116Z,4.10
2018-12-06T07:02:42.266Z,4.10
2018-12-06T07:05:51.415Z,4.10
2018-12-06T07:09:00.619Z,4.20
2018-12-06T07:12:09.772Z,4.20
2018-12-06T07:15:18.901Z,4.20
2018-12-06T07:18:28.025Z,4.20
2018-12-06T07:21:37.514Z,4.30
2018-12-06T07:24:46.688Z,4.40
2018-12-06T07:27:37.021Z,4.40
2018-12-06T07:30:46.267Z,4.50
2018-12-06T07:33:55.463Z,4.50
2018-12-06T07:37:04.652Z,4.50
2018-12-06T07:40:13.857Z,4.60
2018-12-06T07:43:23.158Z,4.60
2018-12-06T07:46:32.327Z,4.60
2018-12-06T07:49:42.030Z,4.70
2018-12-06T07:52:51.177Z,4.70
2018-12-06T07:59:14.731Z,4.70
2018-12-06T08:02:05.139Z,4.70
2018-12-06T08:04:47.487Z,4.70
2018-12-06T08:07:56.619Z,4.70
2018-12-06T08:11:05.739Z,4.70
2018-12-06T08:14:14.883Z,4.80
2018-12-06T08:17:05.528Z,4.90
2018-12-06T08:20:14.720Z,5.00
2018-12-06T08:23:23.839Z,5.00
2018-12-06T08:29:26.053Z,5.00
2018-12-06T08:32:16.292Z,4.90
2018-12-06T08:35:46.001Z,4.80
2018-12-06T08:38:55.564Z,4.80
2018-12-06T08:42:05.007Z,5.00
2018-12-06T08:45:14.155Z,5.00
2018-12-06T08:48:23.292Z,5.10
2018-12-06T08:51:32.441Z,5.20
2018-12-06T08:54:41.565Z,5.30
2018-12-06T08:57:31.792Z,5.40
2018-12-06T09:00:22.039Z,5.50
2018-12-06T09:03:31.128Z,5.60
2018-12-06T09:06:40.698Z,5.50
2018-12-06T09:09:49.853Z,5.40
2018-12-06T09:12:58.984Z,5.40
2018-12-06T09:16:08.104Z,5.40
2018-12-06T09:19:17.270Z,5.50
2018-12-06T09:22:26.388Z,5.40
2018-12-06T09:25:35.511Z,5.40
2018-12-06T09:28:26.115Z,5.40
2018-12-06T09:31:35.361Z,5.40
2018-12-06T09:34:44.506Z,5.50
2018-12-06T09:37:53.619Z,5.50
2018-12-06T09:41:02.819Z,5.70
2018-12-06T09:43:53.140Z,5.90
2018-12-06T09:46:43.369Z,6.00
2018-12-06T09:49:52.565Z,6.10
2018-12-06T09:53:01.680Z,6.20
2018-12-06T09:56:10.833Z,6.20
2018-12-06T09:59:19.969Z,6.30
2018-12-06T10:02:29.100Z,6.50
2018-12-06T10:08:30.509Z,6.70
2018-12-06T10:11:39.727Z,6.80
2018-12-06T10:14:29.957Z,6.90
2018-12-06T10:17:39.150Z,7.00
2018-12-06T10:20:48.564Z,7.10
2018-12-06T10:23:39.488Z,7.20
2018-12-06T10:26:50.361Z,7.20
2018-12-06T10:29:59.494Z,7.30
2018-12-06T10:33:08.642Z,7.30
2018-12-06T10:36:17.756Z,7.30
2018-12-06T10:42:19.950Z,7.60
2018-12-06T10:45:10.211Z,7.70
2018-12-06T10:48:19.360Z,7.90
2018-12-06T10:54:40.316Z,8.20
2018-12-06T10:57:30.691Z,8.40
2018-12-06T11:00:39.549Z,8.60
2018-12-06T11:04:07.238Z,8.60
2018-12-06T11:07:16.425Z,8.60
2018-12-06T11:10:25.565Z,8.50
2018-12-06T11:13:34.724Z,8.30
2018-12-06T11:20:15.906Z,8.20
2018-12-06T11:23:06.171Z,8.40
2018-12-06T11:26:15.331Z,8.50
2018-12-06T11:29:05.625Z,8.60
2018-12-06T11:32:15.074Z,9.00
2018-12-06T11:35:05.661Z,9.00
2018-12-06T11:37:55.931Z,8.90
2018-12-06T11:41:05.085Z,8.80
2018-12-06T11:44:14.508Z,8.80
2018-12-06T11:47:23.692Z,8.70
2018-12-06T11:50:32.883Z,8.60
2018-12-06T11:53:42.024Z,8.50
2018-12-06T11:56:32.284Z,8.60
2018-12-06T11:59:41.453Z,8.60
2018-12-06T12:02:50.328Z,8.60
2018-12-06T12:05:59.702Z,8.60
2018-12-06T12:09:08.868Z,8.60
2018-12-06T12:12:18.001Z,8.70
2018-12-06T12:15:08.660Z,8.80
2018-12-06T12:18:17.839Z,8.80
2018-12-06T12:21:08.117Z,8.80
2018-12-06T12:24:17.536Z,8.80
2018-12-06T12:27:26.698Z,9.00
2018-12-06T12:30:16.942Z,9.00
2018-12-06T12:33:26.130Z,9.10
2018-12-06T12:36:16.596Z,9.20
2018-12-06T12:39:24.389Z,9.30
2018-12-06T12:42:14.653Z,9.20
2018-12-06T12:45:23.846Z,9.30
2018-12-06T12:48:32.981Z,9.30
2018-12-06T12:51:42.121Z,9.30
2018-12-06T12:54:51.635Z,9.30
2018-12-06T12:57:41.934Z,9.30
2018-12-06T13:00:43.855Z,9.30
2018-12-06T13:03:24.636Z,9.30
2018-12-06T13:06:15.062Z,9.30
2018-12-06T13:09:44.651Z,9.40
2018-12-06T13:12:35.214Z,9.40
2018-12-06T13:15:25.971Z,9.40
2018-12-06T13:25:39.566Z,9.60
2018-12-06T13:28:29.775Z,9.60
2018-12-06T13:31:56.182Z,9.50
2018-12-06T13:35:05.339Z,9.50
2018-12-06T13:38:14.481Z,9.40
2018-12-06T13:41:05.376Z,9.50
2018-12-06T13:44:14.688Z,9.40
2018-12-06T13:47:25.580Z,9.40
2018-12-06T13:50:34.725Z,9.50
2018-12-06T13:53:43.845Z,9.40
2018-12-06T13:56:34.103Z,9.50
2018-12-06T13:59:43.277Z,9.40
2018-12-06T14:02:52.429Z,9.50
2018-12-06T14:06:01.878Z,9.50
2018-12-06T14:09:10.988Z,9.50
2018-12-06T14:12:01.263Z,9.60
2018-12-06T14:19:05.410Z,9.60
2018-12-06T14:22:14.583Z,9.60
2018-12-06T14:25:05.348Z,9.60
2018-12-06T14:27:55.584Z,9.70
2018-12-06T14:31:04.796Z,9.70
2018-12-06T14:34:13.915Z,9.60
2018-12-06T14:37:04.225Z,9.70
2018-12-06T14:40:14.256Z,9.70
2018-12-06T14:43:23.514Z,9.70
2018-12-06T14:46:32.680Z,9.70
2018-12-06T14:49:42.060Z,9.70
2018-12-06T14:52:51.212Z,9.70
2018-12-06T14:59:14.546Z,9.70
2018-12-06T15:02:23.761Z,9.70
2018-12-06T15:05:14.032Z,9.70
2018-12-06T15:08:23.215Z,9.70
2018-12-06T15:11:32.422Z,9.70
2018-12-06T15:14:41.623Z,9.70
2018-12-06T15:17:50.763Z,9.80
2018-12-06T15:20:41.074Z,9.80
2018-12-06T15:23:50.161Z,9.80
2018-12-06T15:26:59.318Z,9.80
2018-12-06T15:30:08.439Z,9.80
2018-12-06T15:33:17.590Z,9.80
2018-12-06T15:36:27.014Z,9.80
2018-12-06T15:39:36.474Z,9.80
2018-12-06T15:42:26.740Z,9.80
2018-12-06T15:45:37.695Z,9.70
2018-12-06T15:48:27.900Z,9.70
2018-12-06T15:51:18.285Z,9.70
2018-12-06T15:54:08.525Z,9.70
2018-12-06T15:57:17.649Z,9.70
2018-12-06T16:00:48.478Z,9.70
2018-12-06T16:03:57.569Z,9.70
2018-12-06T16:06:47.790Z,9.60
2018-12-06T16:09:56.976Z,9.60
2018-12-06T16:12:47.360Z,9.70
2018-12-06T16:15:38.020Z,9.70
2018-12-06T16:18:47.201Z,9.70
2018-12-06T16:21:56.298Z,9.70
2018-12-06T16:24:46.635Z,9.70
2018-12-06T16:28:31.833Z,9.60
2018-12-06T16:31:21.786Z,9.60
2018-12-06T16:34:30.934Z,9.60
2018-12-06T16:37:40.155Z,9.60
2018-12-06T16:40:49.282Z,9.60
2018-12-06T16:43:40.087Z,9.50
2018-12-06T16:46:49.221Z,9.60
2018-12-06T16:49:58.455Z,9.50
2018-12-06T16:53:07.583Z,9.60
2018-12-06T16:56:16.732Z,9.50
2018-12-06T16:59:25.604Z,9.50
2018-12-06T17:02:34.720Z,9.50
2018-12-06T17:05:43.934Z,9.50
2018-12-06T17:08:53.100Z,9.40
2018-12-06T17:12:02.271Z,9.40
2018-12-06T17:15:11.869Z,9.40
2018-12-06T17:18:21.071Z,9.40
2018-12-06T17:21:30.477Z,9.40
2018-12-06T17:24:39.628Z,9.40
2018-12-06T17:27:27.845Z,9.40
2018-12-06T17:30:18.198Z,9.40
2018-12-06T17:33:27.431Z,9.40
2018-12-06T17:36:36.566Z,9.40
2018-12-06T17:39:45.704Z,9.40
2018-12-06T17:42:54.917Z,9.50
2018-12-06T17:46:04.062Z,9.50
2018-12-06T17:49:13.780Z,9.50
2018-12-06T17:52:22.916Z,9.40
2018-12-06T17:55:32.045Z,9.40
2018-12-06T17:58:41.206Z,9.40
2018-12-06T18:01:50.332Z,9.40
2018-12-06T18:04:59.488Z,9.40
2018-12-06T18:08:08.617Z,9.40
2018-12-06T18:10:59.824Z,9.50
2018-12-06T18:14:09.239Z,9.50
2018-12-06T18:17:18.378Z,9.50
2018-12-06T18:21:03.640Z,9.50
2018-12-06T18:24:18.367Z,9.50
2018-12-06T18:27:22.672Z,9.60
2018-12-06T18:30:30.191Z,9.70
2018-12-06T18:33:40.180Z,9.70
2018-12-06T18:36:30.510Z,9.80
2018-12-06T18:39:39.639Z,9.80
2018-12-06T18:42:30.139Z,9.80
2018-12-06T18:45:13.582Z,9.80
2018-12-06T18:48:04.502Z,9.80
2018-12-06T18:51:13.714Z,9.80
2018-12-06T18:54:22.842Z,9.80
2018-12-06T18:57:32.256Z,9.80
2018-12-06T19:00:41.408Z,9.70
2018-12-06T19:03:50.553Z,9.70
2018-12-06T19:07:23.560Z,9.70
2018-12-06T19:10:32.754Z,9.70
2018-12-06T19:13:42.213Z,9.70
2018-12-06T19:16:33.035Z,9.70
2018-12-06T19:19:23.931Z,9.70
2018-12-06T19:22:33.048Z,9.70
2018-12-06T19:25:23.623Z,9.70
2018-12-06T19:31:59.569Z,9.70
2018-12-06T19:35:09.510Z,9.80
2018-12-06T19:38:18.940Z,9.80
2018-12-06T19:41:09.252Z,9.80
2018-12-06T19:44:18.470Z,9.80
2018-12-06T19:47:27.979Z,9.80
2018-12-06T19:50:37.143Z,9.80
2018-12-06T19:53:46.883Z,9.80
2018-12-06T19:56:56.030Z,9.80
2018-12-06T19:59:46.651Z,9.80
2018-12-06T20:02:55.868Z,9.80
2018-12-06T20:05:46.296Z,9.80
2018-12-06T20:08:55.490Z,9.80
2018-12-06T20:11:45.775Z,9.70
2018-12-06T20:14:36.026Z,9.70
2018-12-06T20:17:26.299Z,9.80
2018-12-06T20:21:11.583Z,9.70
2018-12-06T20:24:21.051Z,9.70
2018-12-06T20:27:11.351Z,9.80
2018-12-06T20:30:20.782Z,9.90
2018-12-06T20:33:11.681Z,9.90
2018-12-06T20:36:01.974Z,9.80
2018-12-06T20:39:11.163Z,9.80
2018-12-06T20:42:01.455Z,9.90
2018-12-06T20:45:46.673Z,9.90
2018-12-06T20:48:55.852Z,10.00
2018-12-06T20:52:04.740Z,10.00
2018-12-06T20:55:13.927Z,9.90
2018-12-06T20:58:04.296Z,10.00
2018-12-06T21:01:13.497Z,10.00
2018-12-06T21:04:22.958Z,10.00
2018-12-06T21:07:32.155Z,10.00
2018-12-06T21:10:41.388Z,10.00
2018-12-06T21:23:59.403Z,10.10
2018-12-06T21:30:42.155Z,10.10
2018-12-06T21:33:32.386Z,10.10
2018-12-06T21:37:18.165Z,10.10
2018-12-06T21:40:27.753Z,10.10
2018-12-06T21:47:28.261Z,10.20
2018-12-06T21:50:37.469Z,10.30
2018-12-06T21:53:47.567Z,10.30
2018-12-06T21:57:17.208Z,10.30
2018-12-06T22:00:45.903Z,10.30
2018-12-06T22:03:55.094Z,10.40
2018-12-06T22:07:04.210Z,10.40
2018-12-06T22:10:13.064Z,10.40
2018-12-06T22:13:03.343Z,10.40
2018-12-06T22:16:12.540Z,10.40
2018-12-06T22:19:38.707Z,10.40
2018-12-06T22:22:29.046Z,10.40
2018-12-06T22:26:14.715Z,10.40
2018-12-06T22:29:23.885Z,10.40
2018-12-06T22:32:14.421Z,10.40
2018-12-06T22:35:23.614Z,10.40
2018-12-06T22:38:34.320Z,10.40
2018-12-06T22:42:01.444Z,10.30
2018-12-06T22:45:12.263Z,10.30
2018-12-06T22:48:21.458Z,10.30
2018-12-06T22:51:12.203Z,10.30
2018-12-06T22:54:57.241Z,10.30
2018-12-06T23:05:30.613Z,10.30
2018-12-06T23:09:00.316Z,10.30
2018-12-06T23:11:50.606Z,10.30
2018-12-06T23:15:00.178Z,10.30
2018-12-06T23:17:50.551Z,10.30
2018-12-06T23:20:40.879Z,10.30
2018-12-06T23:23:31.132Z,10.30
2018-12-06T23:26:40.313Z,10.40
2018-12-06T23:29:30.561Z,10.40
2018-12-06T23:32:39.759Z,10.40
2018-12-06T23:35:48.992Z,10.40
2018-12-06T23:38:39.410Z,10.50
2018-12-06T23:42:06.043Z,10.50
2018-12-06T23:45:15.274Z,10.50
2018-12-06T23:48:05.676Z,10.50
2018-12-06T23:51:36.207Z,10.50
2018-12-06T23:54:45.706Z,10.50
2018-12-06T23:57:53.902Z,10.50
